createdAt,value
2022-10-17T00:00:04.000Z,98.73
2022-10-17T00:01:04.000Z,98.73
2022-10-17T00:02:04.000Z,98.83
2022-10-17T00:03:04.000Z,98.83
2022-10-17T00:04:04.000Z,98.73
2022-10-17T00:05:04.000Z,98.73
2022-10-17T00:06:04.000Z,98.63
2022-10-17T00:07:04.000Z,98.52
2022-10-17T00:08:04.000Z,98.43
2022-10-17T00:09:04.000Z,98.32
2022-10-17T00:10:04.000Z,98.32
2022-10-17T00:11:04.000Z,98.22
2022-10-17T00:12:04.000Z,98.12
2022-10-17T00:13:04.000Z,98.12
2022-10-17T00:14:04.000Z,98.07
2022-10-17T00:15:04.000Z,98.02
2022-10-17T00:16:04.000Z,98.02
2022-10-17T00:17:04.000Z,98.07
2022-10-17T00:18:04.000Z,97.92
2022-10-17T00:19:04.000Z,97.96
2022-10-17T00:20:04.000Z,98.07
2022-10-17T00:21:04.000Z,98.16
2022-10-17T00:22:04.000Z,98.27
2022-10-17T00:23:04.000Z,98.37
2022-10-17T00:24:04.000Z,98.68
2022-10-17T00:25:04.000Z,98.88
2022-10-17T00:26:04.000Z,99.04
2022-10-17T00:27:04.000Z,99.04
2022-10-17T00:28:04.000Z,99.04
2022-10-17T00:29:04.000Z,99.04
2022-10-17T00:30:04.000Z,99.04
2022-10-17T00:31:04.000Z,99.13
2022-10-17T00:32:04.000Z,99.24
2022-10-17T00:33:04.000Z,99.33
2022-10-17T00:34:04.000Z,99.33
2022-10-17T00:35:04.000Z,99.33
2022-10-17T00:36:04.000Z,99.33
2022-10-17T00:37:04.000Z,99.33
2022-10-17T00:38:04.000Z,99.33
2022-10-17T00:39:04.000Z,99.44
2022-10-17T00:40:04.000Z,99.44
2022-10-17T00:41:04.000Z,99.33
2022-10-17T00:42:04.000Z,99.33
2022-10-17T00:43:04.000Z,99.33
2022-10-17T00:44:04.000Z,99.33
2022-10-17T00:55:20.000Z,99.04
2022-10-17T00:55:20.000Z,99.04
2022-10-17T00:56:19.000Z,99.04
2022-10-17T00:57:19.000Z,98.93
2022-10-17T00:58:19.000Z,98.93
2022-10-17T00:59:19.000Z,98.93
2022-10-17T01:00:19.000Z,98.93
2022-10-17T01:01:19.000Z,98.93
2022-10-17T01:02:19.000Z,98.83
2022-10-17T01:03:19.000Z,98.93
2022-10-17T01:04:19.000Z,98.93
2022-10-17T01:05:19.000Z,99.04
2022-10-17T01:06:19.000Z,99.04
2022-10-17T02:06:29.000Z,98.79
2022-10-17T02:06:29.000Z,98.88
2022-10-17T02:07:29.000Z,98.68
2022-10-17T02:08:29.000Z,98.68
2022-10-17T02:09:29.000Z,98.68
2022-10-17T02:10:29.000Z,98.68
2022-10-17T02:11:29.000Z,98.68
2022-10-17T02:12:29.000Z,98.68
2022-10-17T02:13:29.000Z,98.68
2022-10-17T02:14:29.000Z,98.73
2022-10-17T02:15:29.000Z,98.73
2022-10-17T02:16:29.000Z,98.73
2022-10-17T02:17:29.000Z,98.73
2022-10-17T02:18:29.000Z,98.83
2022-10-17T02:19:29.000Z,98.93
2022-10-17T02:20:29.000Z,98.93
2022-10-17T02:21:29.000Z,98.93
2022-10-17T02:22:29.000Z,99.13
2022-10-17T02:23:29.000Z,99.24
2022-10-17T02:24:29.000Z,99.24
2022-10-17T02:25:29.000Z,99.13
2022-10-17T02:26:29.000Z,99.13
2022-10-17T02:27:29.000Z,99.13
2022-10-17T02:28:29.000Z,99.13
2022-10-17T02:29:29.000Z,99.13
2022-10-17T02:42:03.000Z,99.54
2022-10-17T02:42:03.000Z,99.54
2022-10-17T02:43:03.000Z,99.54
2022-10-17T02:44:03.000Z,99.54
2022-10-17T02:45:03.000Z,99.54
2022-10-17T02:46:03.000Z,99.44
2022-10-17T02:47:03.000Z,99.54
2022-10-17T02:48:03.000Z,99.54
2022-10-17T02:49:03.000Z,99.54
2022-10-17T02:50:03.000Z,99.54
2022-10-17T02:51:03.000Z,99.44
2022-10-17T02:52:03.000Z,99.44
2022-10-17T02:53:03.000Z,99.33
2022-10-17T02:54:02.000Z,99.33
2022-10-17T02:55:02.000Z,99.24
2022-10-17T02:56:02.000Z,99.24
2022-10-17T02:57:02.000Z,99.24
2022-10-17T02:58:02.000Z,99.13
2022-10-17T02:59:02.000Z,99.24
2022-10-17T03:00:02.000Z,99.13
2022-10-17T03:01:02.000Z,99.04
2022-10-17T03:02:02.000Z,99.04
2022-10-17T03:03:02.000Z,98.93
2022-10-17T03:04:02.000Z,98.93
2022-10-17T03:05:02.000Z,98.93
2022-10-17T03:06:02.000Z,98.93
2022-10-17T03:07:02.000Z,98.93
2022-10-17T03:08:02.000Z,98.93
2022-10-17T03:09:02.000Z,99.04
2022-10-17T03:10:02.000Z,99.04
2022-10-17T03:11:02.000Z,99.04
2022-10-17T03:12:02.000Z,99.24
2022-10-17T03:13:02.000Z,99.24
2022-10-17T03:14:02.000Z,99.24
2022-10-17T03:15:02.000Z,99.24
2022-10-17T03:16:02.000Z,99.24
2022-10-17T03:17:02.000Z,99.13
2022-10-17T03:18:02.000Z,99.13
2022-10-17T03:19:02.000Z,99.13
2022-10-17T03:20:02.000Z,99.04
2022-10-17T03:21:02.000Z,99.04
2022-10-17T03:22:02.000Z,99.04
2022-10-17T03:23:02.000Z,99.04
2022-10-17T03:24:02.000Z,99.13
2022-10-17T03:25:02.000Z,99.04
2022-10-17T03:50:10.000Z,99.49
2022-10-17T03:50:10.000Z,99.38
2022-10-17T03:51:10.000Z,99.38
2022-10-17T03:52:10.000Z,99.38
2022-10-17T03:53:10.000Z,99.28
2022-10-17T03:54:10.000Z,99.28
2022-10-17T03:55:10.000Z,99.28
2022-10-17T03:56:10.000Z,99.28
2022-10-17T03:57:10.000Z,99.28
2022-10-17T03:58:10.000Z,99.18
2022-10-17T03:59:10.000Z,99.28
2022-10-17T04:00:10.000Z,99.28
2022-10-17T04:01:10.000Z,99.38
2022-10-17T04:02:10.000Z,99.38
2022-10-17T04:03:10.000Z,99.43
2022-10-17T04:04:10.000Z,99.43
2022-10-17T04:05:10.000Z,99.49
2022-10-17T04:06:10.000Z,99.49
2022-10-17T04:07:10.000Z,99.49
2022-10-17T04:08:10.000Z,99.53
2022-10-17T04:09:10.000Z,99.53
2022-10-17T04:10:10.000Z,99.43
2022-10-17T04:11:10.000Z,99.43
2022-10-17T04:12:10.000Z,99.33
2022-10-17T04:13:10.000Z,99.33
2022-10-17T04:14:10.000Z,99.33
2022-10-17T04:15:10.000Z,99.33
2022-10-17T04:16:10.000Z,99.22
2022-10-17T04:17:10.000Z,99.22
2022-10-17T04:18:10.000Z,99.13
2022-10-17T04:26:26.000Z,99.27
2022-10-17T04:26:26.000Z,99.17
2022-10-17T04:27:26.000Z,99.27
2022-10-17T04:28:26.000Z,99.38
2022-10-17T04:49:06.000Z,99.99
2022-10-17T04:49:06.000Z,99.99
2022-10-17T04:50:06.000Z,99.99
2022-10-17T04:51:06.000Z,99.99
2022-10-17T04:52:06.000Z,99.99
2022-10-17T04:53:06.000Z,99.99
2022-10-17T04:54:06.000Z,99.99
2022-10-17T04:55:06.000Z,99.99
2022-10-17T04:56:06.000Z,99.99
2022-10-17T04:57:06.000Z,99.99
2022-10-17T04:58:06.000Z,99.99
2022-10-17T04:59:06.000Z,99.99
2022-10-17T05:00:06.000Z,99.99
2022-10-17T05:01:06.000Z,99.99
2022-10-17T05:02:06.000Z,99.99
2022-10-17T05:03:06.000Z,99.99
2022-10-17T05:04:06.000Z,99.99
2022-10-17T05:05:06.000Z,99.99
2022-10-17T05:16:53.000Z,99.88
2022-10-17T05:16:53.000Z,99.99
2022-10-17T05:17:53.000Z,99.99
2022-10-17T05:18:53.000Z,99.99
2022-10-17T05:19:53.000Z,99.99
2022-10-17T05:20:53.000Z,99.99
2022-10-17T05:21:53.000Z,99.99
2022-10-17T05:22:53.000Z,99.99
2022-10-17T05:23:53.000Z,99.88
2022-10-17T05:24:53.000Z,99.88
2022-10-17T05:32:10.000Z,99.58
2022-10-17T05:32:10.000Z,99.68
2022-10-17T05:33:10.000Z,99.58
2022-10-17T05:34:10.000Z,99.52
2022-10-17T05:35:10.000Z,99.52
2022-10-17T05:36:10.000Z,99.52
2022-10-17T05:37:10.000Z,99.52
2022-10-17T05:38:10.000Z,99.52
2022-10-17T05:39:10.000Z,99.52
2022-10-17T05:40:10.000Z,99.52
2022-10-17T05:41:09.000Z,99.52
2022-10-17T05:42:09.000Z,99.63
2022-10-17T05:43:09.000Z,99.63
2022-10-17T05:44:09.000Z,99.63
2022-10-17T05:45:09.000Z,99.58
2022-10-17T05:46:09.000Z,99.58
2022-10-17T05:47:09.000Z,99.58
2022-10-17T05:48:09.000Z,99.58
2022-10-17T05:49:09.000Z,99.58
2022-10-17T05:50:09.000Z,99.58
2022-10-17T05:51:09.000Z,99.58
2022-10-17T05:52:09.000Z,99.58
2022-10-17T05:53:09.000Z,99.58
2022-10-17T05:54:09.000Z,99.58
2022-10-17T05:55:09.000Z,99.58
2022-10-17T05:56:09.000Z,99.58
2022-10-17T05:57:09.000Z,99.58
2022-10-17T05:58:09.000Z,99.63
2022-10-17T05:59:09.000Z,99.63
2022-10-17T06:00:09.000Z,99.63
2022-10-17T06:01:09.000Z,99.58
2022-10-17T06:02:09.000Z,99.58
2022-10-17T06:03:09.000Z,99.58
2022-10-17T06:04:09.000Z,99.49
2022-10-17T06:05:09.000Z,99.49
2022-10-17T06:06:09.000Z,99.38
2022-10-17T06:07:09.000Z,99.24
2022-10-17T06:08:09.000Z,98.93
2022-10-17T06:09:09.000Z,98.63
2022-10-17T06:10:09.000Z,98.18
2022-10-17T06:11:09.000Z,97.97
2022-10-17T06:12:09.000Z,97.87
2022-10-17T06:13:09.000Z,97.56
2022-10-17T06:14:09.000Z,96.51
2022-10-17T06:15:09.000Z,96.51
2022-10-17T06:16:09.000Z,96.51
2022-10-17T06:17:09.000Z,96.36
2022-10-17T06:18:09.000Z,96.15
2022-10-17T06:19:09.000Z,96.06
2022-10-17T06:20:09.000Z,95.86
2022-10-17T06:21:09.000Z,95.50
2022-10-17T06:22:09.000Z,95.10
2022-10-17T06:23:09.000Z,94.70
2022-10-17T06:24:09.000Z,94.55
2022-10-17T06:25:09.000Z,94.04
2022-10-17T06:26:09.000Z,93.94
2022-10-17T06:27:09.000Z,93.70
2022-10-17T06:28:09.000Z,93.39
2022-10-17T06:29:09.000Z,93.19
2022-10-17T06:30:09.000Z,92.64
2022-10-17T06:31:09.000Z,92.64
2022-10-17T06:32:09.000Z,91.53
2022-10-17T06:33:09.000Z,91.18
2022-10-17T06:34:09.000Z,90.67
2022-10-17T06:35:09.000Z,89.56
2022-10-17T06:36:09.000Z,89.72
2022-10-17T06:37:09.000Z,89.22
2022-10-17T06:38:09.000Z,89.22
2022-10-17T06:39:09.000Z,89.01
2022-10-17T06:40:09.000Z,88.77
2022-10-17T06:41:09.000Z,87.76
2022-10-17T06:42:09.000Z,87.86
2022-10-17T06:43:09.000Z,87.86
2022-10-17T06:44:09.000Z,87.86
2022-10-17T06:45:09.000Z,87.66
2022-10-17T06:46:09.000Z,87.32
2022-10-17T06:47:09.000Z,87.32
2022-10-17T06:48:09.000Z,86.71
2022-10-17T06:49:09.000Z,86.21
2022-10-17T06:50:09.000Z,85.70
2022-10-17T06:51:09.000Z,86.00
2022-10-17T06:52:09.000Z,86.10
2022-10-17T06:53:09.000Z,86.41
2022-10-17T06:54:09.000Z,86.10
2022-10-17T06:55:09.000Z,85.80
2022-10-17T06:56:09.000Z,85.76
2022-10-17T06:57:09.000Z,85.66
2022-10-17T06:58:09.000Z,85.56
2022-10-17T06:59:09.000Z,85.82
2022-10-17T07:00:09.000Z,85.92
2022-10-17T07:01:09.000Z,86.13
2022-10-17T07:02:09.000Z,85.38
2022-10-17T07:03:09.000Z,85.08
2022-10-17T07:04:09.000Z,84.88
2022-10-17T07:05:09.000Z,84.74
2022-10-17T07:06:09.000Z,84.29
2022-10-17T07:07:09.000Z,83.18
2022-10-17T07:08:09.000Z,82.54
2022-10-17T07:09:09.000Z,82.60
2022-10-17T07:10:09.000Z,81.70
2022-10-17T07:11:09.000Z,81.26
2022-10-17T07:12:08.000Z,79.91
2022-10-17T07:13:08.000Z,80.41
2022-10-17T07:14:08.000Z,79.06
2022-10-17T07:15:08.000Z,78.46
2022-10-17T07:33:47.000Z,77.05
2022-10-17T07:33:47.000Z,77.75
2022-10-17T07:34:47.000Z,77.35
2022-10-17T07:35:47.000Z,77.65
2022-10-17T07:36:47.000Z,77.75
2022-10-17T07:37:47.000Z,77.05
2022-10-17T07:38:47.000Z,76.18
2022-10-17T07:39:47.000Z,77.09
2022-10-17T07:40:47.000Z,77.09
2022-10-17T07:41:47.000Z,77.69
2022-10-17T07:42:47.000Z,77.28
2022-10-17T07:43:47.000Z,77.89
2022-10-17T07:44:47.000Z,77.59
2022-10-17T07:45:47.000Z,77.92
2022-10-17T07:46:47.000Z,78.53
2022-10-17T07:47:47.000Z,78.63
2022-10-17T07:48:47.000Z,78.93
2022-10-17T07:49:47.000Z,79.03
2022-10-17T07:50:47.000Z,78.83
2022-10-17T07:51:47.000Z,78.53
2022-10-17T07:52:47.000Z,78.83
2022-10-17T07:53:47.000Z,78.66
2022-10-17T07:54:47.000Z,78.77
2022-10-17T08:30:02.000Z,67.83
2022-10-17T08:30:02.000Z,67.86
2022-10-17T08:31:02.000Z,67.43
2022-10-17T08:32:02.000Z,67.33
2022-10-17T08:33:02.000Z,67.13
2022-10-17T08:34:02.000Z,67.33
2022-10-17T08:35:02.000Z,66.80
2022-10-17T08:36:02.000Z,67.20
2022-10-17T08:37:02.000Z,66.17
2022-10-17T08:38:02.000Z,65.87
2022-10-17T08:39:02.000Z,65.87
2022-10-17T08:40:02.000Z,65.74
2022-10-17T08:41:02.000Z,65.24
2022-10-17T08:42:02.000Z,64.94
2022-10-17T08:43:02.000Z,65.44
2022-10-17T08:44:02.000Z,65.05
2022-10-17T08:45:02.000Z,64.07
2022-10-17T08:46:02.000Z,65.67
2022-10-17T08:47:02.000Z,65.27
2022-10-17T08:48:02.000Z,66.17
2022-10-17T08:49:02.000Z,66.07
2022-10-17T08:50:02.000Z,66.07
2022-10-17T08:57:20.000Z,65.27
2022-10-17T08:57:20.000Z,65.17
2022-10-17T08:58:20.000Z,66.47
2022-10-17T08:59:20.000Z,65.64
2022-10-17T09:00:20.000Z,64.84
2022-10-17T09:01:20.000Z,63.62
2022-10-17T09:02:20.000Z,64.01
2022-10-17T09:03:20.000Z,64.78
2022-10-17T09:04:20.000Z,63.59
2022-10-17T09:05:20.000Z,63.09
2022-10-17T09:06:20.000Z,63.39
2022-10-17T09:07:20.000Z,62.96
2022-10-17T09:08:20.000Z,62.37
2022-10-17T09:09:20.000Z,62.70
2022-10-17T09:10:19.000Z,62.18
2022-10-17T09:11:19.000Z,60.66
2022-10-17T09:12:19.000Z,59.83
2022-10-17T09:13:19.000Z,60.03
2022-10-17T09:14:19.000Z,59.41
2022-10-17T09:15:19.000Z,58.81
2022-10-17T09:16:19.000Z,57.99
2022-10-17T09:17:19.000Z,57.67
2022-10-17T09:18:19.000Z,56.55
2022-10-17T09:19:19.000Z,56.45
2022-10-17T09:20:19.000Z,56.32
2022-10-17T09:21:19.000Z,55.21
2022-10-17T09:22:19.000Z,55.41
2022-10-17T09:23:19.000Z,53.99
2022-10-17T09:24:19.000Z,55.47
2022-10-17T09:25:19.000Z,55.75
2022-10-17T09:26:19.000Z,54.06
2022-10-17T09:27:19.000Z,53.38
2022-10-17T09:28:19.000Z,54.36
2022-10-17T09:29:19.000Z,53.38
2022-10-17T09:30:19.000Z,53.97
2022-10-17T09:31:19.000Z,54.17
2022-10-17T09:32:19.000Z,53.45
2022-10-17T09:33:19.000Z,53.35
2022-10-17T09:34:19.000Z,53.35
2022-10-17T09:35:19.000Z,53.12
2022-10-17T09:36:19.000Z,52.34
2022-10-17T09:36:19.000Z,52.34
2022-10-17T09:37:19.000Z,53.59
2022-10-17T09:37:19.000Z,53.59
2022-10-17T09:38:19.000Z,53.59
2022-10-17T09:38:19.000Z,53.59
2022-10-17T09:39:19.000Z,53.10
2022-10-17T09:39:19.000Z,53.10
2022-10-17T09:40:19.000Z,52.28
2022-10-17T09:40:19.000Z,52.28
2022-10-17T09:41:19.000Z,51.50
2022-10-17T09:42:19.000Z,52.39
2022-10-17T09:43:19.000Z,52.48
2022-10-17T09:44:19.000Z,51.77
2022-10-17T09:45:19.000Z,52.16
2022-10-17T09:46:19.000Z,49.97
2022-10-17T09:47:19.000Z,50.95
2022-10-17T09:48:19.000Z,50.95
2022-10-17T09:49:19.000Z,49.75
2022-10-17T09:50:19.000Z,49.65
2022-10-17T09:51:19.000Z,48.64
2022-10-17T09:52:19.000Z,49.04
2022-10-17T09:53:19.000Z,50.21
2022-10-17T09:54:19.000Z,49.43
2022-10-17T09:55:19.000Z,49.82
2022-10-17T09:56:19.000Z,48.91
2022-10-17T09:57:19.000Z,49.30
2022-10-17T09:58:19.000Z,48.89
2022-10-17T09:59:19.000Z,46.72
2022-10-17T10:00:19.000Z,47.22
2022-10-17T10:01:19.000Z,48.39
2022-10-17T10:02:19.000Z,46.43
2022-10-17T10:03:19.000Z,45.64
2022-10-17T10:04:19.000Z,45.94
2022-10-17T10:05:19.000Z,46.72
2022-10-17T10:06:19.000Z,46.13
2022-10-17T10:07:19.000Z,45.81
2022-10-17T10:08:19.000Z,45.72
2022-10-17T10:09:19.000Z,45.92
2022-10-17T10:10:19.000Z,46.60
2022-10-17T10:11:19.000Z,45.54
2022-10-17T10:12:19.000Z,46.03
2022-10-17T10:13:19.000Z,46.65
2022-10-17T10:14:19.000Z,47.04
2022-10-17T10:15:19.000Z,48.13
2022-10-17T10:16:19.000Z,47.53
2022-10-17T10:17:19.000Z,48.14
2022-10-17T10:18:19.000Z,46.65
2022-10-17T10:19:19.000Z,47.85
2022-10-17T10:20:19.000Z,48.44
2022-10-17T10:21:19.000Z,49.43
2022-10-17T10:22:19.000Z,47.36
2022-10-17T10:23:19.000Z,47.46
2022-10-17T10:24:19.000Z,47.36
2022-10-17T10:25:19.000Z,47.46
2022-10-17T10:26:19.000Z,48.54
2022-10-17T10:27:19.000Z,48.13
2022-10-17T10:28:19.000Z,47.53
2022-10-17T10:29:19.000Z,48.42
2022-10-17T10:30:19.000Z,48.10
2022-10-17T10:31:19.000Z,46.23
2022-10-17T10:32:19.000Z,46.72
2022-10-17T10:33:19.000Z,46.75
2022-10-17T10:34:19.000Z,47.24
2022-10-17T10:35:19.000Z,47.95
2022-10-17T10:36:19.000Z,48.64
2022-10-17T10:37:19.000Z,48.27
2022-10-17T10:38:19.000Z,48.39
2022-10-17T10:39:19.000Z,49.08
2022-10-17T10:40:19.000Z,49.26
2022-10-17T10:41:19.000Z,49.55
2022-10-17T10:42:19.000Z,49.26
2022-10-17T10:43:19.000Z,47.97
2022-10-17T10:44:19.000Z,48.66
2022-10-17T10:45:19.000Z,49.13
2022-10-17T10:46:19.000Z,47.36
2022-10-17T10:47:18.000Z,48.42
2022-10-17T10:48:18.000Z,48.79
2022-10-17T10:49:18.000Z,46.92
2022-10-17T10:50:18.000Z,47.49
2022-10-17T10:51:18.000Z,46.58
2022-10-17T10:52:18.000Z,45.99
2022-10-17T10:53:18.000Z,45.70
2022-10-17T10:54:18.000Z,45.30
2022-10-17T10:55:18.000Z,46.09
2022-10-17T10:56:18.000Z,46.09
2022-10-17T10:57:18.000Z,47.17
2022-10-17T10:58:18.000Z,47.00
2022-10-17T10:59:18.000Z,46.21
2022-10-17T11:00:18.000Z,46.23
2022-10-17T11:01:18.000Z,47.51
2022-10-17T11:02:18.000Z,48.20
2022-10-17T11:03:18.000Z,47.12
2022-10-17T11:04:18.000Z,47.44
2022-10-17T11:05:18.000Z,48.22
2022-10-17T11:31:46.000Z,43.45
2022-10-17T11:31:46.000Z,43.66
2022-10-17T11:32:46.000Z,43.23
2022-10-17T11:33:46.000Z,44.80
2022-10-17T11:34:46.000Z,42.35
2022-10-17T11:35:46.000Z,43.12
2022-10-17T11:36:46.000Z,43.48
2022-10-17T11:37:46.000Z,41.92
2022-10-17T11:38:46.000Z,41.70
2022-10-17T11:39:46.000Z,41.21
2022-10-17T11:40:46.000Z,40.92
2022-10-17T11:41:46.000Z,41.58
2022-10-17T11:42:46.000Z,40.48
2022-10-17T11:43:46.000Z,39.61
2022-10-17T11:44:46.000Z,39.59
2022-10-17T11:45:46.000Z,37.71
2022-10-17T11:46:46.000Z,38.12
2022-10-17T11:47:46.000Z,38.59
2022-10-17T11:48:46.000Z,39.18
2022-10-17T11:49:46.000Z,39.67
2022-10-17T11:50:46.000Z,38.59
2022-10-17T11:51:46.000Z,38.89
2022-10-17T11:52:46.000Z,39.20
2022-10-17T11:53:46.000Z,39.69
2022-10-17T11:54:46.000Z,37.73
2022-10-17T11:55:46.000Z,39.29
2022-10-17T11:56:46.000Z,39.88
2022-10-17T11:57:46.000Z,38.12
2022-10-17T11:58:46.000Z,39.29
2022-10-17T11:59:46.000Z,39.70
2022-10-17T12:00:46.000Z,40.56
2022-10-17T12:01:46.000Z,38.82
2022-10-17T12:02:46.000Z,38.61
2022-10-17T12:03:46.000Z,37.73
2022-10-17T12:04:46.000Z,38.90
2022-10-17T12:05:46.000Z,38.51
2022-10-17T12:06:46.000Z,38.14
2022-10-17T12:07:46.000Z,38.84
2022-10-17T12:08:46.000Z,38.29
2022-10-17T12:09:46.000Z,39.69
2022-10-17T12:10:46.000Z,39.00
2022-10-17T12:11:46.000Z,40.00
2022-10-17T12:12:46.000Z,41.17
2022-10-17T12:13:46.000Z,41.39
2022-10-17T12:14:46.000Z,40.92
2022-10-17T12:15:46.000Z,41.80
2022-10-17T12:16:46.000Z,42.11
2022-10-17T12:17:46.000Z,41.63
2022-10-17T12:18:46.000Z,42.41
2022-10-17T12:19:46.000Z,42.33
2022-10-17T12:20:46.000Z,42.85
2022-10-17T12:21:46.000Z,42.94
2022-10-17T12:22:46.000Z,42.38
2022-10-17T12:23:46.000Z,42.77
2022-10-17T12:24:46.000Z,42.10
2022-10-17T12:25:46.000Z,43.10
2022-10-17T12:26:46.000Z,43.42
2022-10-17T12:27:46.000Z,44.40
2022-10-17T12:28:46.000Z,43.54
2022-10-17T12:29:46.000Z,44.43
2022-10-17T12:30:46.000Z,45.34
2022-10-17T12:31:46.000Z,46.32
2022-10-17T12:32:46.000Z,44.55
2022-10-17T12:33:46.000Z,46.64
2022-10-17T12:34:46.000Z,45.65
2022-10-17T12:35:46.000Z,46.17
2022-10-17T12:36:46.000Z,45.89
2022-10-17T12:37:46.000Z,47.28
2022-10-17T12:38:46.000Z,47.10
2022-10-17T12:39:46.000Z,46.31
2022-10-17T12:40:46.000Z,46.11
2022-10-17T12:41:46.000Z,46.83
2022-10-17T12:42:46.000Z,47.32
2022-10-17T12:43:46.000Z,46.23
2022-10-17T12:44:46.000Z,46.66
2022-10-17T12:45:46.000Z,47.25
2022-10-17T12:46:46.000Z,47.15
2022-10-17T12:47:46.000Z,46.55
2022-10-17T12:48:46.000Z,46.78
2022-10-17T12:49:46.000Z,47.47
2022-10-17T12:50:46.000Z,47.56
2022-10-17T12:51:46.000Z,48.46
2022-10-17T12:52:46.000Z,47.78
2022-10-17T12:53:46.000Z,47.69
2022-10-17T12:54:46.000Z,48.48
2022-10-17T12:55:46.000Z,48.88
2022-10-17T12:56:46.000Z,49.27
2022-10-17T12:57:46.000Z,48.18
2022-10-17T12:58:46.000Z,47.61
2022-10-17T12:59:46.000Z,46.92
2022-10-17T13:00:46.000Z,47.41
2022-10-17T13:01:46.000Z,48.90
2022-10-17T13:02:46.000Z,48.43
2022-10-17T13:03:46.000Z,48.63
2022-10-17T13:04:46.000Z,48.63
2022-10-17T13:05:45.000Z,48.82
2022-10-17T13:06:45.000Z,49.22
2022-10-17T13:07:45.000Z,49.15
2022-10-17T13:08:45.000Z,48.65
2022-10-17T13:09:45.000Z,48.75
2022-10-17T13:10:45.000Z,48.15
2022-10-17T13:11:45.000Z,48.55
2022-10-17T13:12:45.000Z,48.05
2022-10-17T13:13:45.000Z,49.34
2022-10-17T13:14:45.000Z,49.24
2022-10-17T13:15:45.000Z,48.55
2022-10-17T13:16:45.000Z,49.05
2022-10-17T13:17:45.000Z,48.65
2022-10-17T13:18:45.000Z,49.44
2022-10-17T13:19:45.000Z,49.64
2022-10-17T13:20:45.000Z,49.44
2022-10-17T13:21:45.000Z,49.44
2022-10-17T13:22:45.000Z,49.44
2022-10-17T13:23:45.000Z,49.15
2022-10-17T13:24:45.000Z,49.54
2022-10-17T13:25:45.000Z,49.64
2022-10-17T13:26:45.000Z,49.84
2022-10-17T13:27:45.000Z,49.44
2022-10-17T13:28:45.000Z,49.84
2022-10-17T13:29:45.000Z,50.23
2022-10-17T13:30:45.000Z,50.34
2022-10-17T13:31:45.000Z,49.94
2022-10-17T13:32:45.000Z,49.64
2022-10-17T13:33:45.000Z,50.43
2022-10-17T13:34:45.000Z,49.74
2022-10-17T13:35:45.000Z,49.84
2022-10-17T13:36:45.000Z,50.13
2022-10-17T13:37:45.000Z,50.53
2022-10-17T13:38:45.000Z,49.74
2022-10-17T13:39:45.000Z,49.44
2022-10-17T13:40:45.000Z,50.63
2022-10-17T13:41:45.000Z,50.83
2022-10-17T13:42:45.000Z,50.83
2022-10-17T13:43:45.000Z,50.93
2022-10-17T13:44:45.000Z,50.34
2022-10-17T13:45:45.000Z,50.34
2022-10-17T13:46:45.000Z,51.03
2022-10-17T13:47:45.000Z,49.64
2022-10-17T13:48:45.000Z,49.54
2022-10-17T13:49:45.000Z,49.71
2022-10-17T13:50:45.000Z,50.01
2022-10-17T13:51:45.000Z,49.91
2022-10-17T13:52:45.000Z,49.32
2022-10-17T13:53:45.000Z,49.81
2022-10-17T13:54:45.000Z,48.43
2022-10-17T13:55:45.000Z,49.52
2022-10-17T13:56:45.000Z,49.12
2022-10-17T13:57:45.000Z,49.02
2022-10-17T13:58:45.000Z,49.22
2022-10-17T13:58:45.000Z,49.22
2022-10-17T13:59:45.000Z,48.53
2022-10-17T13:59:45.000Z,48.53
2022-10-17T14:00:45.000Z,48.13
2022-10-17T14:00:45.000Z,48.13
2022-10-17T14:01:45.000Z,48.43
2022-10-17T14:01:45.000Z,48.43
2022-10-17T14:02:45.000Z,49.81
2022-10-17T14:02:45.000Z,49.81
2022-10-17T14:03:45.000Z,48.72
2022-10-17T14:04:45.000Z,49.91
2022-10-17T14:05:45.000Z,48.53
2022-10-17T14:06:45.000Z,48.53
2022-10-17T14:07:45.000Z,49.12
2022-10-17T14:08:45.000Z,49.52
2022-10-17T14:09:45.000Z,48.13
2022-10-17T14:10:45.000Z,49.32
2022-10-17T14:11:45.000Z,48.43
2022-10-17T14:12:45.000Z,48.92
2022-10-17T14:13:45.000Z,48.23
2022-10-17T14:14:45.000Z,49.32
2022-10-17T14:15:45.000Z,48.03
2022-10-17T14:16:45.000Z,48.23
2022-10-17T14:17:45.000Z,48.15
2022-10-17T14:18:45.000Z,48.85
2022-10-17T14:19:45.000Z,49.74
2022-10-17T14:20:45.000Z,49.64
2022-10-17T14:21:45.000Z,49.15
2022-10-17T14:22:45.000Z,49.64
2022-10-17T14:23:45.000Z,48.87
2022-10-17T14:24:45.000Z,49.17
2022-10-17T14:25:45.000Z,49.46
2022-10-17T14:26:45.000Z,50.16
2022-10-17T14:27:45.000Z,49.96
2022-10-17T14:28:45.000Z,50.26
2022-10-17T14:29:45.000Z,50.26
2022-10-17T14:30:45.000Z,50.06
2022-10-17T14:31:45.000Z,49.76
2022-10-17T14:32:45.000Z,50.38
2022-10-17T14:33:45.000Z,50.48
2022-10-17T14:34:45.000Z,50.48
2022-10-17T14:35:45.000Z,50.68
2022-10-17T14:36:45.000Z,50.98
2022-10-17T14:37:45.000Z,50.09
2022-10-17T14:38:45.000Z,50.09
2022-10-17T14:39:45.000Z,50.98
2022-10-17T14:40:45.000Z,50.38
2022-10-17T14:41:44.000Z,49.99
2022-10-17T14:42:44.000Z,50.38
2022-10-17T14:43:44.000Z,51.28
2022-10-17T14:44:44.000Z,51.07
2022-10-17T14:45:44.000Z,50.78
2022-10-17T14:46:44.000Z,49.79
2022-10-17T14:47:44.000Z,50.38
2022-10-17T14:48:44.000Z,50.70
2022-10-17T14:49:44.000Z,49.71
2022-10-17T14:50:44.000Z,49.81
2022-10-17T14:51:44.000Z,50.40
2022-10-17T14:52:44.000Z,50.90
2022-10-17T14:53:44.000Z,50.60
2022-10-17T14:54:44.000Z,50.90
2022-10-17T14:55:44.000Z,50.51
2022-10-17T14:56:44.000Z,49.91
2022-10-17T14:57:44.000Z,50.31
2022-10-17T14:58:44.000Z,50.70
2022-10-17T14:59:44.000Z,50.23
2022-10-17T15:00:44.000Z,51.03
2022-10-17T15:01:44.000Z,51.03
2022-10-17T15:02:44.000Z,51.12
2022-10-17T15:03:44.000Z,50.93
2022-10-17T15:04:44.000Z,51.42
2022-10-17T15:05:44.000Z,52.22
2022-10-17T15:06:44.000Z,51.42
2022-10-17T15:07:44.000Z,51.65
2022-10-17T15:08:44.000Z,51.75
2022-10-17T15:09:44.000Z,50.95
2022-10-17T15:10:44.000Z,51.65
2022-10-17T15:11:44.000Z,52.24
2022-10-17T15:12:44.000Z,51.65
2022-10-17T15:51:42.000Z,56.05
2022-10-17T15:51:42.000Z,55.65
2022-10-17T15:52:42.000Z,55.85
2022-10-17T15:53:42.000Z,55.85
2022-10-17T15:54:42.000Z,55.85
2022-10-17T15:55:42.000Z,55.85
2022-10-17T15:56:42.000Z,56.18
2022-10-17T15:57:42.000Z,56.18
2022-10-17T15:58:42.000Z,56.38
2022-10-17T15:59:42.000Z,56.27
2022-10-17T16:00:42.000Z,56.38
2022-10-17T16:01:42.000Z,56.48
2022-10-17T16:02:42.000Z,56.60
2022-10-17T16:03:42.000Z,56.90
2022-10-17T16:04:42.000Z,56.81
2022-10-17T16:05:42.000Z,56.81
2022-10-17T16:06:42.000Z,57.00
2022-10-17T16:07:42.000Z,57.50
2022-10-17T16:08:42.000Z,57.53
2022-10-17T16:09:42.000Z,57.82
2022-10-17T16:10:42.000Z,57.63
2022-10-17T16:11:42.000Z,57.82
2022-10-17T16:12:42.000Z,58.36
2022-10-17T16:13:42.000Z,57.95
2022-10-17T16:14:42.000Z,58.25
2022-10-17T16:15:42.000Z,58.45
2022-10-17T16:16:42.000Z,58.55
2022-10-17T16:17:42.000Z,58.58
2022-10-17T16:18:42.000Z,58.58
2022-10-17T16:19:42.000Z,58.78
2022-10-17T16:20:42.000Z,58.98
2022-10-17T16:21:42.000Z,59.08
2022-10-17T16:22:42.000Z,59.41
2022-10-17T16:23:42.000Z,59.41
2022-10-17T16:24:42.000Z,59.61
2022-10-17T16:25:42.000Z,59.70
2022-10-17T16:26:42.000Z,60.00
2022-10-17T16:27:42.000Z,60.14
2022-10-17T16:28:42.000Z,60.33
2022-10-17T16:29:42.000Z,60.53
2022-10-17T16:39:33.000Z,61.99
2022-10-17T16:39:33.000Z,61.79
2022-10-17T16:40:33.000Z,61.99
2022-10-17T16:41:33.000Z,62.29
2022-10-17T16:42:33.000Z,62.59
2022-10-17T16:43:33.000Z,62.49
2022-10-17T16:44:33.000Z,62.49
2022-10-17T16:45:33.000Z,62.72
2022-10-17T16:46:33.000Z,62.82
2022-10-17T16:47:33.000Z,63.12
2022-10-17T16:48:33.000Z,63.02
2022-10-17T16:49:33.000Z,63.12
2022-10-17T16:50:33.000Z,63.42
2022-10-17T16:51:33.000Z,63.82
2022-10-17T16:52:33.000Z,63.82
2022-10-17T16:53:33.000Z,63.82
2022-10-17T16:54:33.000Z,64.03
2022-10-17T16:55:33.000Z,64.03
2022-10-17T16:56:33.000Z,64.06
2022-10-17T16:57:33.000Z,64.45
2022-10-17T16:58:33.000Z,64.36
2022-10-17T16:59:33.000Z,64.25
2022-10-17T17:00:33.000Z,64.65
2022-10-17T17:01:33.000Z,64.65
2022-10-17T17:02:33.000Z,64.45
2022-10-17T17:03:33.000Z,64.65
2022-10-17T17:04:33.000Z,64.59
2022-10-17T17:05:33.000Z,64.78
2022-10-17T17:06:33.000Z,64.89
2022-10-17T17:07:33.000Z,64.98